Atka, AK

11:40 AM HADT on July 29, 2014 (GMT -0900)
Atka (PAAK) Elev 56 ft | 52.22 °N, 174.21 °W | Change Station

Current weather conditions updated 4 minutes ago

Overcast
Overcast
55 °F
Feels Like 55 °F
N
12
Wind Variable Wind from SE

Today is forecast to be nearly the same temperature as yesterday. Showers.

Today
High -- | Low -- °F
--% Chance of Precip.
Yesterday
High -- | Low -- °F
Precip. -- in
6:53 AM 10:31 PM
Waxing Crescent, 7% visible
Pressure 30.14 in
Visibility 9.0 miles
Clouds Overcast 700 ft
Dew Point 54 °F
Humidity 94%
Rainfall 0.00 in
Snow Depth Not available.
UV 2 out of 12
Pollen Not available.
Air Quality Not available.
Flu Activity Not available.
METAR PAAK 292036Z 14010KT 9SM OVC007 13/12 A3014 RMK AO1

More Conditions Fewer Conditions

Pressure 30.14 in
Visibility 9.0 miles
Clouds Overcast 700 ft
Dew Point 54 °F
Humidity 94%
Rainfall 0.00 in
Snow Depth Not available.
UV 2 out of 12
Pollen Not available.
Air Quality Not available.
Flu Activity Not available.
METAR PAAK 292036Z 14010KT 9SM OVC007 13/12 A3014 RMK AO1

More Conditions Fewer Conditions

10-Day Weather Forecast

Almanac

Astronomy

Jul. 29, 2014 Rise Set
Actual Time 6:53 AM HADT 10:31 PM HADT
Civil Twilight 6:11 AM HADT 11:14 PM HADT
Nautical Twilight 5:12 AM HADT 12:11 AM HADT
Astronomical Twilight 3:40 AM HADT 1:40 AM HADT
Moon 10:11 AM HADT 11:19 PM HADT
Length of Visible Light 17h 02m
Length of Day
15h 38m
Tomorrow will be 3m 10s shorter.
Waxing Crescent, 7% of the Moon is Illuminated
Today
Waxing Crescent
Aug 3
First Quarter
Aug 10
Full
Aug 17
Last Quarter
Aug 25
New

Today's Extremes

State Highs State Lows

Community

WunderPhotos

Upload Photos

1,738,859 photos uploaded!

Nearby

Snow Depth

Station Depth Elevation
Rocky Point 2 in 500 ft
Mcneil Canyon 1 in 1320 ft
MF Bradley River 215 in 2300 ft
Nuka Glacier 57 in 1250 ft
Cooper Lake 36 in 1200 ft

Earthquake Activity

City Distance Mag. Time & Date
No recent earthquake activity has been reported nearby.
Minimum magnitude displayed is 2.5.

Coastal Water Temperatures

Place Temperature
No Stations Reporting

Nearby Weather Stations

There are no personal weather stations in this area.